createdAt,value
2017-10-15T00:00:52.438Z,0
2017-10-15T00:01:53.858Z,0
2017-10-15T00:02:55.298Z,0
2017-10-15T00:03:56.721Z,0
2017-10-15T00:04:58.143Z,0
2017-10-15T00:05:59.571Z,0
2017-10-15T00:07:00.987Z,0
2017-10-15T00:08:02.408Z,0
2017-10-15T00:09:03.820Z,0
2017-10-15T00:10:05.244Z,0
2017-10-15T00:11:06.660Z,0
2017-10-15T00:12:08.082Z,0
2017-10-15T00:13:09.500Z,0
2017-10-15T00:14:10.925Z,0
2017-10-15T00:15:12.341Z,0
2017-10-15T00:16:13.756Z,0
2017-10-15T00:17:15.189Z,0
2017-10-15T00:18:16.613Z,0
2017-10-15T00:19:18.028Z,0
2017-10-15T00:20:19.563Z,0
2017-10-15T00:21:20.989Z,0
2017-10-15T00:22:22.485Z,0
2017-10-15T00:23:23.917Z,0
2017-10-15T00:24:25.347Z,0
2017-10-15T00:25:26.758Z,0
2017-10-15T00:26:28.174Z,0
2017-10-15T00:27:29.589Z,0
2017-10-15T00:28:31.011Z,0
2017-10-15T00:29:32.429Z,0
2017-10-15T00:30:33.846Z,0
2017-10-15T00:31:35.260Z,0
2017-10-15T00:32:36.683Z,0
2017-10-15T00:33:38.100Z,0
2017-10-15T00:34:39.526Z,0
2017-10-15T00:35:40.944Z,0
2017-10-15T00:36:42.376Z,0
2017-10-15T00:37:43.808Z,0
2017-10-15T00:38:45.230Z,0
2017-10-15T00:39:46.654Z,0
2017-10-15T00:40:48.077Z,0
2017-10-15T00:41:49.493Z,0
2017-10-15T00:42:50.909Z,0
2017-10-15T00:43:52.354Z,0
2017-10-15T00:44:53.774Z,0
2017-10-15T00:45:55.187Z,0
2017-10-15T00:46:56.600Z,0
2017-10-15T00:47:58.023Z,0
2017-10-15T00:48:59.435Z,0
2017-10-15T00:50:00.859Z,0
2017-10-15T00:51:02.281Z,0
2017-10-15T00:52:03.709Z,0
2017-10-15T00:53:05.183Z,0
2017-10-15T00:54:06.608Z,0
2017-10-15T00:55:08.100Z,0
2017-10-15T00:56:09.514Z,0
2017-10-15T00:57:10.935Z,0
2017-10-15T00:58:12.353Z,0
2017-10-15T00:59:13.765Z,0
2017-10-15T01:00:15.188Z,0
2017-10-15T01:01:16.606Z,0
2017-10-15T01:02:18.027Z,0
2017-10-15T01:03:19.448Z,0
2017-10-15T01:04:20.861Z,0
2017-10-15T01:05:22.294Z,0
2017-10-15T01:06:23.705Z,0
2017-10-15T01:07:25.121Z,0
2017-10-15T01:08:26.542Z,0
2017-10-15T01:09:27.957Z,0
2017-10-15T01:10:29.372Z,0
2017-10-15T01:11:30.789Z,0
2017-10-15T01:12:32.205Z,0
2017-10-15T01:13:33.622Z,0
2017-10-15T01:14:35.054Z,0
2017-10-15T01:15:36.467Z,0
2017-10-15T01:16:37.883Z,0
2017-10-15T01:17:39.309Z,0
2017-10-15T01:18:40.722Z,0
2017-10-15T01:19:42.144Z,0
2017-10-15T01:20:43.564Z,0
2017-10-15T01:21:44.983Z,0
2017-10-15T01:22:46.404Z,0
2017-10-15T01:23:47.825Z,0
2017-10-15T01:24:49.286Z,0
2017-10-15T01:25:50.714Z,0
2017-10-15T01:26:52.132Z,0
2017-10-15T01:27:53.556Z,0
2017-10-15T01:28:54.974Z,0
2017-10-15T01:29:56.402Z,0
2017-10-15T01:30:57.824Z,0
2017-10-15T01:31:59.246Z,0
2017-10-15T01:33:00.656Z,0
2017-10-15T01:34:02.082Z,0
2017-10-15T01:35:03.511Z,0
2017-10-15T01:36:04.924Z,0
2017-10-15T01:37:06.348Z,0
2017-10-15T01:38:07.772Z,0
2017-10-15T01:39:09.199Z,0
2017-10-15T01:40:10.613Z,0
2017-10-15T01:41:12.031Z,0
2017-10-15T01:42:13.454Z,0
2017-10-15T01:43:14.880Z,0
2017-10-15T01:44:16.307Z,0
2017-10-15T01:45:17.738Z,0
2017-10-15T01:46:19.150Z,0
2017-10-15T01:47:20.563Z,0
2017-10-15T01:48:21.983Z,0
2017-10-15T01:49:23.399Z,0
2017-10-15T01:50:24.819Z,0
2017-10-15T01:51:26.235Z,0
2017-10-15T01:52:27.655Z,0
2017-10-15T01:53:29.069Z,0
2017-10-15T01:54:30.489Z,0
2017-10-15T01:55:31.913Z,0
2017-10-15T01:56:33.334Z,0
2017-10-15T01:57:34.752Z,0
2017-10-15T01:58:36.171Z,0
2017-10-15T01:59:37.585Z,0
2017-10-15T02:00:39.007Z,0
2017-10-15T02:01:40.424Z,0
2017-10-15T02:02:41.847Z,0
2017-10-15T02:03:43.263Z,0
2017-10-15T02:04:44.682Z,0
2017-10-15T02:05:46.109Z,0
2017-10-15T02:06:47.524Z,0
2017-10-15T02:07:48.941Z,0
2017-10-15T02:08:50.366Z,0
2017-10-15T02:09:51.783Z,0
2017-10-15T02:10:53.194Z,0
2017-10-15T02:11:54.612Z,0
2017-10-15T02:12:56.041Z,0
2017-10-15T02:13:57.466Z,0
2017-10-15T02:14:58.880Z,0
2017-10-15T02:16:00.356Z,0
2017-10-15T02:17:01.776Z,0
2017-10-15T02:18:03.195Z,0
2017-10-15T02:19:04.617Z,0
2017-10-15T02:20:06.034Z,0
2017-10-15T02:21:07.455Z,0
2017-10-15T02:22:08.870Z,0
2017-10-15T02:23:10.288Z,0
2017-10-15T02:24:11.703Z,0
2017-10-15T02:25:13.168Z,0
2017-10-15T02:26:14.586Z,0
2017-10-15T02:27:16.002Z,0
2017-10-15T02:28:17.413Z,0
2017-10-15T02:29:18.831Z,0
2017-10-15T02:30:20.252Z,0
2017-10-15T02:31:21.667Z,0
2017-10-15T02:32:23.083Z,0
2017-10-15T02:33:24.503Z,0
2017-10-15T02:34:25.920Z,0
2017-10-15T02:35:27.339Z,0
2017-10-15T02:36:28.760Z,0
2017-10-15T02:37:30.181Z,0
2017-10-15T02:38:31.595Z,0
2017-10-15T02:39:33.025Z,0
2017-10-15T02:40:34.445Z,0
2017-10-15T02:41:35.861Z,0
2017-10-15T02:42:37.282Z,0
2017-10-15T02:43:38.703Z,0
2017-10-15T02:44:40.125Z,0
2017-10-15T02:45:41.552Z,0
2017-10-15T02:46:42.979Z,0
2017-10-15T02:47:44.401Z,0
2017-10-15T02:48:45.839Z,0
2017-10-15T02:49:47.253Z,0
2017-10-15T02:50:48.668Z,0
2017-10-15T02:51:50.082Z,0
2017-10-15T02:52:51.523Z,0
2017-10-15T02:53:52.933Z,0
2017-10-15T02:54:54.355Z,0
2017-10-15T02:55:55.772Z,0
2017-10-15T02:56:57.193Z,0
2017-10-15T02:57:58.609Z,0
2017-10-15T02:59:00.023Z,0
2017-10-15T03:00:01.447Z,0
2017-10-15T03:01:02.862Z,0
2017-10-15T03:02:04.281Z,0
2017-10-15T03:03:05.702Z,0
2017-10-15T03:04:07.123Z,0
2017-10-15T03:05:08.542Z,0
2017-10-15T03:06:09.959Z,0
2017-10-15T03:07:11.374Z,0
2017-10-15T03:08:12.794Z,0
2017-10-15T03:09:14.215Z,0
2017-10-15T03:10:15.646Z,0
2017-10-15T03:11:17.050Z,0
2017-10-15T03:12:18.466Z,0
2017-10-15T03:13:19.887Z,0
2017-10-15T03:14:22.055Z,0
2017-10-15T03:15:22.677Z,0
2017-10-15T03:16:24.095Z,0
2017-10-15T03:17:25.512Z,0
2017-10-15T03:18:26.960Z,0
2017-10-15T03:19:28.374Z,0
2017-10-15T03:20:29.886Z,0
2017-10-15T03:21:31.320Z,0
2017-10-15T03:22:32.750Z,0
2017-10-15T03:23:34.173Z,0
2017-10-15T03:24:35.587Z,0
2017-10-15T03:25:37.015Z,0
2017-10-15T03:26:38.433Z,0
2017-10-15T03:27:39.846Z,0
2017-10-15T03:28:41.265Z,0
2017-10-15T03:29:42.687Z,0
2017-10-15T03:30:44.111Z,0
2017-10-15T03:31:45.532Z,0
2017-10-15T03:32:46.945Z,0
2017-10-15T03:33:48.357Z,0
2017-10-15T03:34:49.777Z,0
2017-10-15T03:35:51.225Z,0
2017-10-15T03:36:52.630Z,0
2017-10-15T03:37:54.052Z,0
2017-10-15T03:38:55.473Z,0
2017-10-15T03:39:56.890Z,0
2017-10-15T03:40:58.311Z,0
2017-10-15T03:41:59.725Z,0
2017-10-15T03:43:01.140Z,0
2017-10-15T03:44:02.567Z,0
2017-10-15T03:45:04.000Z,0
2017-10-15T03:46:05.410Z,0
2017-10-15T03:47:06.826Z,0
2017-10-15T03:48:08.244Z,0
2017-10-15T03:49:09.667Z,0
2017-10-15T03:50:11.085Z,0
2017-10-15T03:51:12.517Z,0
2017-10-15T03:52:13.943Z,0
2017-10-15T03:53:15.361Z,0
2017-10-15T03:54:16.788Z,0
2017-10-15T03:55:18.212Z,0
2017-10-15T03:56:19.634Z,0
2017-10-15T03:57:21.058Z,0
2017-10-15T03:58:22.485Z,0
2017-10-15T03:59:23.908Z,0
2017-10-15T04:00:25.326Z,0
2017-10-15T04:01:26.744Z,0
2017-10-15T04:02:28.155Z,0
2017-10-15T04:03:29.575Z,0
2017-10-15T04:04:30.984Z,0
2017-10-15T04:05:32.400Z,0
2017-10-15T04:06:33.816Z,0
2017-10-15T04:07:35.240Z,0
2017-10-15T04:08:36.660Z,0
2017-10-15T04:09:38.074Z,0
2017-10-15T04:10:39.486Z,0
2017-10-15T04:11:40.900Z,0
2017-10-15T04:12:42.317Z,0
2017-10-15T04:13:43.734Z,0
2017-10-15T04:14:45.154Z,0
2017-10-15T04:15:46.564Z,0
2017-10-15T04:16:47.981Z,0
2017-10-15T04:17:49.398Z,0
2017-10-15T04:18:50.822Z,0
2017-10-15T04:19:52.244Z,0
2017-10-15T04:20:53.669Z,0
2017-10-15T04:21:55.093Z,0
2017-10-15T04:22:56.512Z,0
2017-10-15T04:23:57.927Z,0
2017-10-15T04:24:59.342Z,0
2017-10-15T04:26:00.761Z,0
2017-10-15T04:27:02.173Z,0
2017-10-15T04:28:03.593Z,0
2017-10-15T04:29:05.018Z,0
2017-10-15T04:30:06.442Z,0
2017-10-15T04:31:07.864Z,0
2017-10-15T04:32:09.275Z,0
2017-10-15T04:33:10.691Z,0
2017-10-15T04:34:12.116Z,0
2017-10-15T04:35:13.529Z,0
2017-10-15T04:36:14.946Z,0
2017-10-15T04:37:16.360Z,0
2017-10-15T04:38:17.780Z,0
2017-10-15T04:39:19.197Z,0
2017-10-15T04:40:20.623Z,0
2017-10-15T04:41:22.044Z,0
2017-10-15T04:42:23.462Z,0
2017-10-15T04:43:24.885Z,0
2017-10-15T04:44:26.301Z,0
2017-10-15T04:45:27.716Z,0
2017-10-15T04:46:29.196Z,0
2017-10-15T04:47:30.614Z,0
2017-10-15T04:48:32.038Z,0
2017-10-15T04:49:33.451Z,0
2017-10-15T04:50:34.864Z,0
2017-10-15T04:51:36.355Z,0
2017-10-15T04:52:37.775Z,0
2017-10-15T04:53:39.202Z,0
2017-10-15T04:54:40.629Z,0
2017-10-15T04:55:42.047Z,0
2017-10-15T04:56:43.460Z,0
2017-10-15T04:57:44.879Z,0
2017-10-15T04:58:46.297Z,0
2017-10-15T04:59:47.708Z,0
2017-10-15T05:00:49.118Z,0
2017-10-15T05:01:50.533Z,0
2017-10-15T05:02:51.943Z,0
2017-10-15T05:03:53.362Z,0
2017-10-15T05:04:54.779Z,0
2017-10-15T05:05:56.197Z,0
2017-10-15T05:06:57.604Z,0
2017-10-15T05:07:59.018Z,0
2017-10-15T05:09:00.440Z,0
2017-10-15T05:10:01.858Z,0
2017-10-15T05:11:03.271Z,0
2017-10-15T05:12:04.690Z,0
2017-10-15T05:13:06.102Z,0
2017-10-15T05:14:07.525Z,0
2017-10-15T05:15:08.956Z,0
2017-10-15T05:16:10.381Z,0
2017-10-15T05:17:11.807Z,0
2017-10-15T05:18:13.221Z,0
2017-10-15T05:19:14.730Z,0
2017-10-15T05:20:16.149Z,0
2017-10-15T05:21:17.565Z,0
2017-10-15T05:22:18.982Z,0
2017-10-15T05:23:20.396Z,0
2017-10-15T05:24:21.808Z,0
2017-10-15T05:25:23.221Z,0
2017-10-15T05:26:24.644Z,0
2017-10-15T05:27:26.066Z,0
2017-10-15T05:28:27.491Z,0
2017-10-15T05:29:28.907Z,0
2017-10-15T05:30:30.320Z,0
2017-10-15T05:31:31.739Z,0
2017-10-15T05:32:33.157Z,0
2017-10-15T05:33:34.570Z,0
2017-10-15T05:34:35.988Z,0
2017-10-15T05:35:37.409Z,0
2017-10-15T05:36:38.837Z,0
2017-10-15T05:37:40.259Z,0
2017-10-15T05:38:41.685Z,0
2017-10-15T05:39:43.104Z,0
2017-10-15T05:40:44.519Z,0
2017-10-15T05:41:45.935Z,0
2017-10-15T05:42:47.360Z,0
2017-10-15T05:43:48.774Z,0
2017-10-15T05:44:50.193Z,0
2017-10-15T05:45:51.605Z,0
2017-10-15T05:46:53.023Z,0
2017-10-15T05:47:54.446Z,0
2017-10-15T05:48:55.863Z,0
2017-10-15T05:49:57.288Z,0
2017-10-15T05:50:58.717Z,0
2017-10-15T05:52:00.139Z,0
2017-10-15T05:53:01.554Z,0
2017-10-15T05:54:02.973Z,0
2017-10-15T05:55:04.387Z,0
2017-10-15T05:56:05.802Z,0
2017-10-15T05:57:07.216Z,0
2017-10-15T05:58:08.639Z,0
2017-10-15T05:59:10.055Z,0
2017-10-15T06:00:11.477Z,0
2017-10-15T06:01:12.894Z,5
2017-10-15T06:02:14.309Z,5
2017-10-15T06:03:15.720Z,5
2017-10-15T06:04:17.136Z,5
2017-10-15T06:05:18.554Z,5
2017-10-15T06:06:19.973Z,5
2017-10-15T06:07:21.387Z,5
2017-10-15T06:08:22.811Z,5
2017-10-15T06:09:24.227Z,5
2017-10-15T06:10:25.650Z,5
2017-10-15T06:11:27.064Z,5
2017-10-15T06:12:28.485Z,5
2017-10-15T06:13:29.902Z,10
2017-10-15T06:14:31.387Z,10
2017-10-15T06:15:32.806Z,10
2017-10-15T06:16:34.230Z,10
2017-10-15T06:17:35.758Z,10
2017-10-15T06:18:37.175Z,10
2017-10-15T06:19:38.603Z,10
2017-10-15T06:20:40.031Z,10
2017-10-15T06:21:41.455Z,10
2017-10-15T06:22:42.870Z,10
2017-10-15T06:23:44.286Z,15
2017-10-15T06:24:45.709Z,15
2017-10-15T06:25:47.129Z,15
2017-10-15T06:26:48.549Z,15
2017-10-15T06:27:49.968Z,15
2017-10-15T06:28:51.391Z,15
2017-10-15T06:29:52.805Z,15
2017-10-15T06:30:54.237Z,15
2017-10-15T06:31:55.658Z,15
2017-10-15T06:32:57.079Z,15
2017-10-15T06:33:58.500Z,20
2017-10-15T06:34:59.922Z,20
2017-10-15T06:36:01.341Z,20
2017-10-15T06:37:02.762Z,20
2017-10-15T06:38:04.184Z,20
2017-10-15T06:39:05.605Z,20
2017-10-15T06:40:07.050Z,20
2017-10-15T06:41:08.465Z,20
2017-10-15T06:42:09.865Z,20
2017-10-15T06:43:11.287Z,20
2017-10-15T06:44:12.713Z,20
2017-10-15T06:45:14.168Z,25
2017-10-15T06:46:15.555Z,25
2017-10-15T06:47:16.975Z,25
2017-10-15T06:48:18.401Z,25
2017-10-15T06:49:19.821Z,25
2017-10-15T06:50:21.244Z,25
2017-10-15T06:51:22.666Z,25
2017-10-15T06:52:24.087Z,25
2017-10-15T06:53:25.524Z,25
2017-10-15T06:54:26.936Z,25
2017-10-15T06:55:28.359Z,25
2017-10-15T06:56:29.781Z,25
2017-10-15T06:57:31.210Z,30
2017-10-15T06:58:32.640Z,30
2017-10-15T06:59:34.070Z,30
2017-10-15T07:00:35.488Z,30
2017-10-15T07:01:36.912Z,30
2017-10-15T07:02:38.338Z,30
2017-10-15T07:03:39.762Z,30
2017-10-15T07:04:41.183Z,30
2017-10-15T07:05:42.620Z,30
2017-10-15T07:06:44.037Z,30
2017-10-15T07:07:45.460Z,30
2017-10-15T07:08:46.874Z,30
2017-10-15T07:09:48.293Z,35
2017-10-15T07:10:49.716Z,35
2017-10-15T07:11:51.143Z,35
2017-10-15T07:12:52.560Z,35
2017-10-15T07:13:53.991Z,35
2017-10-15T07:14:55.416Z,35
2017-10-15T07:15:56.847Z,35
2017-10-15T07:16:58.274Z,35
2017-10-15T07:17:59.688Z,35
2017-10-15T07:19:01.120Z,35
2017-10-15T07:20:06.162Z,35
2017-10-15T07:21:07.586Z,35
2017-10-15T07:22:09.005Z,35
2017-10-15T07:23:10.428Z,40
2017-10-15T07:24:11.858Z,40
2017-10-15T07:25:13.296Z,40
2017-10-15T07:26:14.719Z,40
2017-10-15T07:27:16.163Z,40
2017-10-15T07:28:17.559Z,40
2017-10-15T07:29:18.976Z,40
2017-10-15T07:30:20.396Z,40
2017-10-15T07:31:21.827Z,40
2017-10-15T07:32:23.235Z,40
2017-10-15T07:33:24.660Z,40
2017-10-15T07:34:26.082Z,40
2017-10-15T07:35:27.496Z,40
2017-10-15T07:36:28.922Z,45
2017-10-15T07:37:30.347Z,45
2017-10-15T07:38:31.767Z,45
2017-10-15T07:39:33.196Z,45
2017-10-15T07:40:34.604Z,45
2017-10-15T07:41:36.036Z,45
2017-10-15T07:42:37.463Z,45
2017-10-15T07:43:38.896Z,45
2017-10-15T07:44:40.328Z,45
2017-10-15T07:45:41.755Z,45
2017-10-15T07:46:43.173Z,45
2017-10-15T07:47:44.590Z,45
2017-10-15T07:48:46.014Z,45
2017-10-15T07:49:47.440Z,50
2017-10-15T07:50:48.879Z,50
2017-10-15T07:51:50.298Z,50
2017-10-15T07:52:51.719Z,50
2017-10-15T07:53:53.144Z,50
2017-10-15T07:54:54.567Z,50
2017-10-15T07:55:55.995Z,50
2017-10-15T07:56:57.411Z,50
2017-10-15T07:57:58.838Z,50
2017-10-15T07:59:00.249Z,50
2017-10-15T08:00:01.677Z,50
2017-10-15T08:01:03.100Z,55
2017-10-15T08:02:04.525Z,55
2017-10-15T08:03:05.949Z,55
2017-10-15T08:04:07.370Z,55
2017-10-15T08:05:08.795Z,55
2017-10-15T08:06:10.219Z,55
2017-10-15T08:07:11.644Z,55
2017-10-15T08:08:13.059Z,55
2017-10-15T08:09:14.484Z,55
2017-10-15T08:10:15.907Z,55
2017-10-15T08:11:17.334Z,60
2017-10-15T08:12:18.757Z,60
2017-10-15T08:13:20.191Z,60
2017-10-15T08:14:21.618Z,60
2017-10-15T08:15:23.047Z,60
2017-10-15T08:16:24.510Z,60
2017-10-15T08:17:25.936Z,60
2017-10-15T08:18:27.367Z,60
2017-10-15T08:19:28.784Z,60
2017-10-15T08:20:30.211Z,15
2017-10-15T08:21:31.635Z,20
2017-10-15T08:22:33.062Z,15
2017-10-15T08:23:34.489Z,10
2017-10-15T08:24:35.910Z,60
2017-10-15T08:25:37.333Z,60
2017-10-15T08:26:38.760Z,10
2017-10-15T08:27:40.187Z,70
2017-10-15T08:28:41.625Z,65
2017-10-15T08:29:43.073Z,65
2017-10-15T08:30:44.497Z,65
2017-10-15T08:31:45.908Z,70
2017-10-15T08:32:47.332Z,70
2017-10-15T08:33:48.755Z,70
2017-10-15T08:34:50.178Z,70
2017-10-15T08:35:51.613Z,70
2017-10-15T08:36:53.029Z,70
2017-10-15T08:37:54.457Z,75
2017-10-15T08:38:55.887Z,75
2017-10-15T08:39:57.318Z,75
2017-10-15T08:40:58.736Z,75
2017-10-15T08:42:00.174Z,75
2017-10-15T08:43:01.588Z,75
2017-10-15T08:44:03.017Z,75
2017-10-15T08:45:04.440Z,75
2017-10-15T08:46:05.863Z,75
2017-10-15T08:47:07.286Z,75
2017-10-15T08:48:08.710Z,75
2017-10-15T08:49:10.133Z,75
2017-10-15T08:50:11.585Z,75
2017-10-15T08:51:13.006Z,75
2017-10-15T08:52:14.433Z,75
2017-10-15T08:53:15.862Z,75
2017-10-15T08:54:17.304Z,75
2017-10-15T08:55:18.721Z,75
2017-10-15T08:56:20.148Z,75
2017-10-15T08:57:21.568Z,75
2017-10-15T08:58:23.004Z,80
2017-10-15T08:59:24.425Z,80
2017-10-15T09:00:25.854Z,80
2017-10-15T09:01:27.283Z,80
2017-10-15T09:02:28.702Z,80
2017-10-15T09:03:30.141Z,80
2017-10-15T09:04:31.559Z,80
2017-10-15T09:05:32.988Z,80
2017-10-15T09:06:34.429Z,80
2017-10-15T09:07:35.867Z,80
2017-10-15T09:08:37.287Z,80
2017-10-15T09:09:38.742Z,80
2017-10-15T09:10:40.172Z,80
2017-10-15T09:11:41.601Z,80
2017-10-15T09:12:43.030Z,80
2017-10-15T09:13:44.470Z,80
2017-10-15T09:14:45.898Z,85
2017-10-15T09:15:47.317Z,85
2017-10-15T09:16:48.757Z,85
2017-10-15T09:17:50.182Z,85
2017-10-15T09:18:51.615Z,85
2017-10-15T09:19:53.047Z,85
2017-10-15T09:20:54.492Z,85
2017-10-15T09:21:55.919Z,90
2017-10-15T09:22:57.346Z,85
2017-10-15T09:23:58.768Z,85
2017-10-15T09:25:00.270Z,85
2017-10-15T09:26:01.742Z,85
2017-10-15T09:27:03.169Z,85
2017-10-15T09:28:04.607Z,90
2017-10-15T09:29:06.033Z,90
2017-10-15T09:30:07.466Z,90
2017-10-15T09:31:08.893Z,90
2017-10-15T09:32:10.318Z,90
2017-10-15T09:33:11.756Z,90
2017-10-15T09:34:13.179Z,90
2017-10-15T09:35:14.678Z,90
2017-10-15T09:36:17.556Z,90
2017-10-15T09:37:18.964Z,95
2017-10-15T09:38:20.388Z,90
2017-10-15T09:39:21.823Z,90
2017-10-15T09:40:23.269Z,90
2017-10-15T09:41:24.716Z,90
2017-10-15T09:42:26.142Z,90
2017-10-15T09:43:27.567Z,90
2017-10-15T09:44:28.993Z,90
2017-10-15T09:45:30.443Z,90
2017-10-15T09:46:31.863Z,95
2017-10-15T09:47:33.286Z,95
2017-10-15T09:48:34.715Z,95
2017-10-15T09:49:36.142Z,95
2017-10-15T09:50:37.589Z,95
2017-10-15T09:51:39.015Z,95
2017-10-15T09:52:40.437Z,95
2017-10-15T09:53:41.865Z,95
2017-10-15T09:54:43.303Z,95
2017-10-15T09:55:44.746Z,95
2017-10-15T09:56:46.166Z,95
2017-10-15T09:57:47.594Z,100
2017-10-15T09:58:49.021Z,100
2017-10-15T09:59:50.455Z,100
2017-10-15T10:00:51.890Z,100
2017-10-15T10:01:53.330Z,100
2017-10-15T10:02:54.760Z,100
2017-10-15T10:03:56.192Z,100
2017-10-15T10:04:57.627Z,100
2017-10-15T10:05:59.060Z,105
2017-10-15T10:07:00.490Z,105
2017-10-15T10:08:01.917Z,105
2017-10-15T10:09:03.352Z,105
2017-10-15T10:10:04.784Z,110
2017-10-15T10:11:06.211Z,105
2017-10-15T10:12:07.640Z,105
2017-10-15T10:13:09.061Z,105
2017-10-15T10:14:10.502Z,110
2017-10-15T10:15:11.935Z,110
2017-10-15T10:16:13.358Z,110
2017-10-15T10:17:14.807Z,110
2017-10-15T10:18:16.231Z,110
2017-10-15T10:19:17.661Z,110
2017-10-15T10:20:19.089Z,110
2017-10-15T10:21:20.512Z,115
2017-10-15T10:22:21.949Z,110
2017-10-15T10:23:23.369Z,110
2017-10-15T10:24:24.794Z,110
2017-10-15T10:25:26.222Z,110
2017-10-15T10:26:27.659Z,115
2017-10-15T10:27:29.088Z,115
2017-10-15T10:28:30.521Z,115
2017-10-15T10:29:31.951Z,115
2017-10-15T10:30:33.381Z,120
2017-10-15T10:31:34.807Z,120
2017-10-15T10:32:36.242Z,125
2017-10-15T10:33:37.665Z,120
2017-10-15T10:34:39.093Z,120
2017-10-15T10:35:40.532Z,125
2017-10-15T10:36:41.960Z,125
2017-10-15T10:37:43.388Z,130
2017-10-15T10:38:44.829Z,135
2017-10-15T10:39:46.260Z,125
2017-10-15T10:40:47.754Z,135
2017-10-15T10:41:49.186Z,130
2017-10-15T10:42:50.620Z,130
2017-10-15T10:43:52.899Z,130
2017-10-15T10:44:54.330Z,135
2017-10-15T10:45:55.761Z,135
2017-10-15T10:46:57.192Z,135
2017-10-15T10:47:58.631Z,135
2017-10-15T10:49:00.067Z,140
2017-10-15T10:50:01.486Z,140
2017-10-15T10:51:02.928Z,140
2017-10-15T10:52:04.360Z,140
2017-10-15T10:53:05.788Z,140
2017-10-15T10:54:07.226Z,145
2017-10-15T10:55:08.661Z,145
2017-10-15T10:56:10.096Z,145
2017-10-15T10:57:11.546Z,145
2017-10-15T10:58:12.971Z,145
2017-10-15T10:59:14.400Z,145
2017-10-15T11:00:15.837Z,145
2017-10-15T11:01:17.269Z,145
2017-10-15T11:02:18.703Z,145
2017-10-15T11:03:20.162Z,150
2017-10-15T11:04:21.574Z,150
2017-10-15T11:05:23.006Z,150
2017-10-15T11:06:24.444Z,150
2017-10-15T11:07:25.874Z,150
2017-10-15T11:08:27.307Z,150
2017-10-15T11:09:28.738Z,150
2017-10-15T11:10:30.172Z,150
2017-10-15T11:11:31.612Z,150
2017-10-15T11:12:33.045Z,155
2017-10-15T11:13:34.477Z,155
2017-10-15T11:14:35.914Z,155
2017-10-15T11:15:37.343Z,155
2017-10-15T11:16:38.777Z,155
2017-10-15T11:17:40.209Z,155
2017-10-15T11:18:41.641Z,160
2017-10-15T11:19:43.098Z,155
2017-10-15T11:20:44.524Z,160
2017-10-15T11:21:45.974Z,160
2017-10-15T11:22:47.424Z,160
2017-10-15T11:23:48.841Z,160
2017-10-15T11:24:50.274Z,160
2017-10-15T11:25:51.696Z,160
2017-10-15T11:26:53.249Z,165
2017-10-15T11:27:54.693Z,165
2017-10-15T11:28:56.173Z,165
2017-10-15T11:29:57.604Z,165
2017-10-15T11:30:59.034Z,170
2017-10-15T11:32:00.516Z,170
2017-10-15T11:33:01.960Z,170
2017-10-15T11:34:03.401Z,170
2017-10-15T11:35:04.827Z,175
2017-10-15T11:36:06.281Z,175
2017-10-15T11:37:07.729Z,180
2017-10-15T11:38:09.163Z,180
2017-10-15T11:39:10.594Z,185
2017-10-15T11:40:12.019Z,185
2017-10-15T11:41:13.461Z,215
2017-10-15T11:42:14.904Z,440
2017-10-15T11:43:16.321Z,230
2017-10-15T11:44:17.759Z,215
2017-10-15T11:45:19.185Z,215
2017-10-15T11:46:20.614Z,205
2017-10-15T11:47:22.053Z,205
2017-10-15T11:48:23.494Z,250
2017-10-15T11:49:24.928Z,250
2017-10-15T11:50:26.350Z,760
2017-10-15T11:51:27.783Z,3305
2017-10-15T11:52:29.232Z,5170
2017-10-15T11:53:30.669Z,5380
2017-10-15T11:54:32.101Z,5355
2017-10-15T11:55:33.530Z,5395
2017-10-15T11:56:34.957Z,5355
2017-10-15T11:57:36.387Z,5350
2017-10-15T11:58:37.821Z,5380
2017-10-15T11:59:39.254Z,5370
2017-10-15T12:00:40.684Z,5335
2017-10-15T12:01:42.123Z,5340
2017-10-15T12:02:43.558Z,5335
2017-10-15T12:03:44.994Z,5325
2017-10-15T12:04:46.423Z,5340
2017-10-15T12:05:47.854Z,5340
2017-10-15T12:06:49.285Z,5315
2017-10-15T12:07:50.718Z,5340
2017-10-15T12:08:52.158Z,5295
2017-10-15T12:09:53.589Z,5305
2017-10-15T12:10:55.038Z,5325
2017-10-15T12:11:56.473Z,5290
2017-10-15T12:12:57.911Z,5270
2017-10-15T12:13:59.355Z,5265
2017-10-15T12:15:00.791Z,5265
2017-10-15T12:16:02.228Z,5250
2017-10-15T12:17:03.672Z,5240
2017-10-15T12:18:05.107Z,5225
2017-10-15T12:19:06.544Z,5220
2017-10-15T12:20:07.991Z,5220
2017-10-15T12:21:09.422Z,5185
2017-10-15T12:22:10.857Z,5170
2017-10-15T12:23:12.316Z,5180
2017-10-15T12:24:13.752Z,5125
2017-10-15T12:25:15.189Z,5100
2017-10-15T12:26:16.729Z,5060
2017-10-15T12:27:18.173Z,5015
2017-10-15T12:28:19.615Z,5030
2017-10-15T12:29:21.054Z,4990
2017-10-15T12:30:22.563Z,4965
2017-10-15T12:31:24.005Z,4965
2017-10-15T12:32:25.437Z,4925
2017-10-15T12:33:26.879Z,4900
2017-10-15T12:34:28.323Z,4840
2017-10-15T12:35:29.844Z,4800
2017-10-15T12:36:31.279Z,4770
2017-10-15T12:37:32.749Z,4730
2017-10-15T12:38:34.179Z,4755
2017-10-15T12:39:35.622Z,4780
2017-10-15T12:40:37.068Z,4775
2017-10-15T12:41:38.508Z,4765
2017-10-15T12:42:39.962Z,4775
2017-10-15T12:43:42.149Z,4765
2017-10-15T12:44:43.627Z,4745
2017-10-15T12:45:45.068Z,4760
2017-10-15T12:46:46.509Z,4775
2017-10-15T12:47:47.949Z,4785
2017-10-15T12:48:49.388Z,4770
2017-10-15T12:49:50.836Z,4755
2017-10-15T12:50:52.276Z,4760
2017-10-15T12:51:53.716Z,4735
2017-10-15T12:52:55.160Z,4720
2017-10-15T12:53:56.599Z,4730
2017-10-15T12:54:58.042Z,4715
2017-10-15T12:55:59.480Z,4665
2017-10-15T12:57:00.931Z,4620
2017-10-15T12:58:02.375Z,4610
2017-10-15T12:59:03.824Z,4585
2017-10-15T13:00:05.267Z,4640
2017-10-15T13:01:06.720Z,4605
2017-10-15T13:02:08.161Z,4595
2017-10-15T13:03:09.613Z,4545
2017-10-15T13:04:11.058Z,4595
2017-10-15T13:05:12.504Z,4505
2017-10-15T13:06:13.955Z,4460
2017-10-15T13:07:15.397Z,4495
2017-10-15T13:08:16.843Z,4485
2017-10-15T13:09:18.281Z,4435
2017-10-15T13:10:19.725Z,4420
2017-10-15T13:11:21.168Z,4415
2017-10-15T13:12:22.609Z,4390
2017-10-15T13:13:24.059Z,4380
2017-10-15T13:14:25.508Z,4365
2017-10-15T13:15:26.949Z,4285
2017-10-15T13:16:28.390Z,4310
2017-10-15T13:17:29.832Z,4295
2017-10-15T13:18:31.285Z,4230
2017-10-15T13:19:32.718Z,4240
2017-10-15T13:20:34.163Z,4205
2017-10-15T13:21:35.615Z,4210
2017-10-15T13:22:37.057Z,4225
2017-10-15T13:23:38.507Z,4205
2017-10-15T13:24:39.954Z,4165
2017-10-15T13:25:41.401Z,4180
2017-10-15T13:26:42.848Z,4150
2017-10-15T13:27:44.296Z,4115
2017-10-15T13:28:45.735Z,4070
2017-10-15T13:29:47.183Z,4015
2017-10-15T13:30:48.636Z,3960
2017-10-15T13:31:50.082Z,3950
2017-10-15T13:32:51.527Z,3910
2017-10-15T13:33:52.971Z,3855
2017-10-15T13:34:54.420Z,3875
2017-10-15T13:35:55.881Z,3835
2017-10-15T13:36:57.315Z,3840
2017-10-15T13:37:58.773Z,3830
2017-10-15T13:39:00.213Z,3810
2017-10-15T13:40:01.652Z,3845
2017-10-15T13:41:03.109Z,3805
2017-10-15T13:42:04.548Z,3640
2017-10-15T13:43:06.019Z,3340
2017-10-15T13:44:07.474Z,3495
2017-10-15T13:45:08.927Z,3605
2017-10-15T13:46:10.378Z,3115
2017-10-15T13:47:11.830Z,2250
2017-10-15T13:48:13.265Z,2330
2017-10-15T13:49:14.715Z,1490
2017-10-15T13:50:16.164Z,2950
2017-10-15T13:51:17.620Z,2910
2017-10-15T13:52:19.058Z,2770
2017-10-15T13:53:20.530Z,810
2017-10-15T13:54:21.973Z,490
2017-10-15T13:55:23.432Z,280
2017-10-15T13:56:24.875Z,260
2017-10-15T13:57:26.311Z,230
2017-10-15T13:58:27.749Z,225
2017-10-15T13:59:29.188Z,240
2017-10-15T14:00:30.629Z,175
2017-10-15T14:01:32.079Z,165
2017-10-15T14:02:33.514Z,160
2017-10-15T14:03:34.949Z,155
2017-10-15T14:04:36.396Z,150
2017-10-15T14:05:37.838Z,145
2017-10-15T14:06:39.272Z,145
2017-10-15T14:07:40.771Z,140
2017-10-15T14:08:42.204Z,140
2017-10-15T14:09:43.639Z,140
2017-10-15T14:10:45.070Z,135
2017-10-15T14:11:46.514Z,135
2017-10-15T14:12:47.949Z,135
2017-10-15T14:13:50.810Z,130
2017-10-15T14:14:52.264Z,130
2017-10-15T14:15:53.700Z,130
2017-10-15T14:16:55.141Z,125
2017-10-15T14:17:56.580Z,125
2017-10-15T14:18:58.021Z,125
2017-10-15T14:19:59.457Z,125
2017-10-15T14:21:01.703Z,125
2017-10-15T14:22:03.142Z,125
2017-10-15T14:23:04.589Z,130
2017-10-15T14:24:06.028Z,120
2017-10-15T14:25:07.520Z,120
2017-10-15T14:26:08.963Z,125
2017-10-15T14:27:10.405Z,120
2017-10-15T14:28:11.846Z,120
2017-10-15T14:29:13.278Z,115
2017-10-15T14:30:14.710Z,115
2017-10-15T14:31:16.143Z,115
2017-10-15T14:32:17.595Z,115
2017-10-15T14:33:19.034Z,110
2017-10-15T14:34:20.469Z,110
2017-10-15T14:35:21.909Z,105